createdAt,value
2022-09-28T00:01:13.472Z,1.67
2022-09-28T00:03:41.646Z,1.75
2022-09-28T00:06:12.245Z,1.20
2022-09-28T00:08:39.547Z,2.65
2022-09-28T00:11:08.062Z,1.05
2022-09-28T00:13:35.285Z,1.20
2022-09-28T00:16:08.398Z,1.45
2022-09-28T00:18:36.109Z,1.08
2022-09-28T00:21:06.956Z,1.58
2022-09-28T00:23:34.991Z,1.35
2022-09-28T00:26:03.789Z,1.65
2022-09-28T00:28:31.436Z,1.35
2022-09-28T00:30:59.215Z,1.00
2022-09-28T00:33:25.973Z,2.63
2022-09-28T00:35:58.173Z,1.52
2022-09-28T00:38:31.120Z,1.45
2022-09-28T00:40:59.639Z,1.92
2022-09-28T00:43:28.042Z,1.20
2022-09-28T00:46:18.902Z,1.20
2022-09-28T00:48:59.270Z,0.80
2022-09-28T00:51:26.674Z,1.30
2022-09-28T00:53:56.104Z,2.00
2022-09-28T00:56:26.233Z,1.95
2022-09-28T00:58:54.712Z,1.17
2022-09-28T01:01:22.806Z,2.25
2022-09-28T01:03:53.665Z,3.58
2022-09-28T01:06:23.350Z,2.67
2022-09-28T01:08:52.120Z,2.83
2022-09-28T01:11:19.605Z,3.03
2022-09-28T01:13:48.805Z,2.42
2022-09-28T01:23:09.390Z,1.45
2022-09-28T01:25:45.911Z,1.88
2022-09-28T01:28:18.194Z,2.50
2022-09-28T01:30:52.458Z,1.85
2022-09-28T01:33:26.414Z,2.38
2022-09-28T01:36:00.147Z,2.40
2022-09-28T01:38:49.382Z,1.38
2022-09-28T01:41:17.958Z,1.45
2022-09-28T01:43:53.766Z,0.93
2022-09-28T01:46:23.548Z,2.22
2022-09-28T01:48:55.358Z,2.65
2022-09-28T01:51:43.279Z,2.38
2022-09-28T01:54:15.041Z,1.38
2022-09-28T01:56:49.296Z,1.92
2022-09-28T02:00:06.369Z,1.65
2022-09-28T02:02:55.297Z,1.17
2022-09-28T02:05:36.301Z,2.50
2022-09-28T02:08:12.586Z,1.10
2022-09-28T02:11:03.920Z,2.35
2022-09-28T02:13:35.592Z,1.73
2022-09-28T02:16:22.972Z,1.95
2022-09-28T02:18:49.963Z,3.00
2022-09-28T02:21:39.574Z,1.38
2022-09-28T02:24:21.549Z,1.85
2022-09-28T02:26:52.073Z,2.28
2022-09-28T02:29:19.424Z,1.13
2022-09-28T02:31:46.152Z,1.42
2022-09-28T02:34:12.860Z,1.27
2022-09-28T02:36:39.950Z,1.98
2022-09-28T02:39:14.146Z,2.63
2022-09-28T02:42:06.933Z,1.77
2022-09-28T02:44:45.269Z,1.23
2022-09-28T02:47:22.658Z,1.38
2022-09-28T02:50:20.400Z,1.45
2022-09-28T02:52:58.280Z,1.83
2022-09-28T02:55:47.062Z,1.15
2022-09-28T02:58:14.434Z,1.77
2022-09-28T03:01:06.938Z,1.90
2022-09-28T03:03:48.913Z,2.80
2022-09-28T03:06:37.990Z,2.10
2022-09-28T03:09:12.367Z,2.63
2022-09-28T03:14:10.018Z,1.38
2022-09-28T03:16:46.196Z,2.40
2022-09-28T03:19:13.676Z,1.88
2022-09-28T03:21:41.320Z,2.17
2022-09-28T03:24:11.146Z,2.80
2022-09-28T03:26:41.441Z,1.73
2022-09-28T03:29:09.905Z,1.15
2022-09-28T03:31:38.595Z,1.30
2022-09-28T03:34:05.627Z,1.85
2022-09-28T03:36:32.276Z,1.05
2022-09-28T03:38:59.674Z,1.65
2022-09-28T03:41:27.907Z,1.17
2022-09-28T03:43:54.906Z,4.68
2022-09-28T03:46:24.428Z,3.28
2022-09-28T03:48:58.216Z,1.25
2022-09-28T03:51:25.915Z,3.08
2022-09-28T03:53:53.558Z,1.48
2022-09-28T03:56:20.901Z,2.88
2022-09-28T03:58:47.678Z,2.20
2022-09-28T04:01:40.748Z,3.15
2022-09-28T04:04:12.882Z,2.67
2022-09-28T04:06:40.303Z,3.42
2022-09-28T04:09:08.373Z,1.65
2022-09-28T04:11:59.439Z,2.85
2022-09-28T04:14:22.627Z,2.17
2022-09-28T04:16:49.674Z,3.78
2022-09-28T04:19:17.526Z,1.92
2022-09-28T04:21:51.870Z,2.13
2022-09-28T04:24:20.329Z,3.92
2022-09-28T04:26:50.833Z,3.95
2022-09-28T04:29:19.264Z,1.83
2022-09-28T04:31:51.482Z,2.15
2022-09-28T04:34:22.745Z,2.45
2022-09-28T04:36:50.094Z,1.83
2022-09-28T04:39:17.979Z,1.67
2022-09-28T04:41:49.252Z,2.28
2022-09-28T04:44:17.139Z,1.17
2022-09-28T04:46:45.632Z,4.50
2022-09-28T04:49:37.114Z,1.90
2022-09-28T04:52:08.765Z,1.38
2022-09-28T04:54:36.037Z,1.13
2022-09-28T04:57:03.802Z,1.52
2022-09-28T04:59:30.584Z,1.98
2022-09-28T05:01:58.453Z,1.40
2022-09-28T05:05:05.127Z,2.00
2022-09-28T05:07:58.629Z,1.55
2022-09-28T05:10:25.458Z,2.58
2022-09-28T05:12:54.164Z,3.50
2022-09-28T05:15:22.029Z,2.40
2022-09-28T05:17:49.308Z,1.52
2022-09-28T05:20:40.602Z,3.67
2022-09-28T05:23:12.313Z,0.75
2022-09-28T05:25:42.092Z,0.77
2022-09-28T05:28:44.640Z,1.65
2022-09-28T05:31:30.505Z,1.17
2022-09-28T05:34:08.291Z,3.22
2022-09-28T05:36:35.698Z,2.80
2022-09-28T05:39:03.911Z,1.55
2022-09-28T05:41:31.314Z,1.02
2022-09-28T05:44:00.193Z,2.88
2022-09-28T05:46:27.777Z,1.55
2022-09-28T05:48:56.124Z,2.15
2022-09-28T05:51:25.346Z,1.50
2022-09-28T05:53:58.814Z,2.13
2022-09-28T05:56:30.766Z,1.38
2022-09-28T05:58:58.679Z,1.77
2022-09-28T06:01:29.889Z,1.48
2022-09-28T06:03:59.242Z,0.98
2022-09-28T06:06:26.111Z,2.85
2022-09-28T06:08:52.987Z,1.05
2022-09-28T06:11:35.528Z,1.70
2022-09-28T06:14:09.925Z,1.00
2022-09-28T06:16:41.632Z,1.10
2022-09-28T06:19:12.101Z,0.97
2022-09-28T06:24:26.344Z,2.85
2022-09-28T06:26:53.045Z,4.57
2022-09-28T06:30:11.581Z,0.50
2022-09-28T06:32:40.124Z,0.93
2022-09-28T06:35:08.760Z,1.45
2022-09-28T06:37:36.676Z,2.08
2022-09-28T06:40:03.743Z,0.95
2022-09-28T06:42:31.020Z,0.90
2022-09-28T06:45:21.841Z,1.05
2022-09-28T06:48:11.600Z,0.80
2022-09-28T06:50:41.096Z,2.05
2022-09-28T06:53:14.468Z,0.85
2022-09-28T06:55:49.950Z,4.53
2022-09-28T06:58:19.688Z,0.93
2022-09-28T07:09:23.818Z,0.80
2022-09-28T07:12:23.172Z,1.13
2022-09-28T07:15:13.069Z,1.63
2022-09-28T07:17:55.362Z,1.02
2022-09-28T07:20:25.370Z,1.23
2022-09-28T07:23:08.714Z,0.75
2022-09-28T07:26:05.820Z,1.13
2022-09-28T07:28:55.752Z,3.03
2022-09-28T07:31:38.195Z,1.23
2022-09-28T07:34:43.998Z,1.02
2022-09-28T07:37:15.770Z,2.13
2022-09-28T07:40:01.739Z,1.27
2022-09-28T07:42:31.227Z,1.65
2022-09-28T07:44:58.885Z,1.15
2022-09-28T07:47:30.861Z,0.90
2022-09-28T07:50:13.785Z,0.40
2022-09-28T07:52:53.141Z,1.77
2022-09-28T07:56:07.347Z,2.63
2022-09-28T07:58:41.524Z,0.95
2022-09-28T08:01:37.727Z,1.13
2022-09-28T08:04:06.451Z,0.80
2022-09-28T08:06:34.815Z,0.65
2022-09-28T08:09:03.491Z,1.75
2022-09-28T08:11:49.985Z,1.90
2022-09-28T08:14:34.289Z,2.63
2022-09-28T08:17:11.693Z,1.42
2022-09-28T08:20:05.686Z,1.75
2022-09-28T08:22:32.373Z,1.70
2022-09-28T08:25:00.204Z,0.70
2022-09-28T08:27:26.995Z,0.57
2022-09-28T08:29:53.919Z,0.73
2022-09-28T08:32:38.806Z,0.68
2022-09-28T08:35:25.676Z,0.25
2022-09-28T08:38:33.474Z,0.88
2022-09-28T08:41:49.114Z,0.25
2022-09-28T08:48:08.259Z,0.40
2022-09-28T08:50:51.087Z,0.55
2022-09-28T08:53:47.793Z,0.35
2022-09-28T08:56:29.807Z,5.68
2022-09-28T08:59:08.713Z,1.35
2022-09-28T09:01:39.409Z,1.50
2022-09-28T09:04:12.703Z,1.50
2022-09-28T09:07:34.573Z,1.10
2022-09-28T09:10:13.624Z,1.25
2022-09-28T09:12:58.850Z,0.70
2022-09-28T09:15:56.401Z,1.83
2022-09-28T09:19:06.221Z,2.15
2022-09-28T09:22:01.706Z,0.80
2022-09-28T09:24:40.789Z,2.13
2022-09-28T09:27:32.627Z,1.80
2022-09-28T09:30:09.384Z,1.05
2022-09-28T09:33:07.842Z,1.75
2022-09-28T09:36:19.445Z,2.38
2022-09-28T09:39:17.950Z,0.55
2022-09-28T09:42:23.620Z,1.08
2022-09-28T09:45:23.749Z,0.50
2022-09-28T09:48:16.968Z,0.57
2022-09-28T09:50:49.687Z,0.73
2022-09-28T09:53:27.851Z,0.98
2022-09-28T09:55:58.421Z,1.15
2022-09-28T09:58:36.734Z,1.20
2022-09-28T10:01:38.904Z,3.00
2022-09-28T10:04:21.059Z,2.08
2022-09-28T10:06:49.796Z,1.58
2022-09-28T10:09:26.210Z,2.35
2022-09-28T10:11:55.606Z,1.42
2022-09-28T10:14:24.471Z,1.90
2022-09-28T10:17:04.207Z,5.20
2022-09-28T10:20:03.803Z,1.45
2022-09-28T10:22:36.501Z,1.15
2022-09-28T10:25:10.786Z,3.00
2022-09-28T10:27:42.122Z,1.25
2022-09-28T10:30:18.194Z,1.55
2022-09-28T10:32:47.837Z,1.55
2022-09-28T10:35:27.125Z,1.95
2022-09-28T10:38:06.805Z,2.63
2022-09-28T10:41:37.849Z,1.15
2022-09-28T10:44:15.632Z,2.45
2022-09-28T10:47:23.463Z,2.03
2022-09-28T10:49:51.247Z,1.27
2022-09-28T10:52:37.584Z,1.40
2022-09-28T10:55:26.109Z,1.95
2022-09-28T10:57:53.181Z,1.83
2022-09-28T11:00:58.089Z,1.85
2022-09-28T11:03:28.112Z,1.85
2022-09-28T11:06:03.897Z,1.35
2022-09-28T11:08:44.615Z,1.58
2022-09-28T11:11:21.162Z,1.85
2022-09-28T11:13:56.551Z,2.70
2022-09-28T11:16:34.604Z,2.88
2022-09-28T11:19:28.799Z,2.28
2022-09-28T11:21:55.590Z,3.13
2022-09-28T11:24:31.399Z,1.45
2022-09-28T11:27:02.234Z,2.20
2022-09-28T11:29:35.919Z,2.67
2022-09-28T11:32:29.790Z,2.08
2022-09-28T11:35:22.053Z,1.60
2022-09-28T11:38:13.193Z,1.90
2022-09-28T11:41:13.997Z,1.77
2022-09-28T11:44:21.862Z,3.40
2022-09-28T11:47:16.911Z,1.70
2022-09-28T11:49:49.756Z,2.22
2022-09-28T11:52:40.286Z,1.73
2022-09-28T11:55:36.713Z,3.58
2022-09-28T11:58:15.787Z,2.35
2022-09-28T12:00:47.558Z,2.47
2022-09-28T12:03:25.619Z,3.75
2022-09-28T12:06:00.446Z,5.18
2022-09-28T12:08:33.483Z,4.35
2022-09-28T12:11:23.425Z,3.22
2022-09-28T12:14:18.365Z,2.25
2022-09-28T12:17:07.696Z,4.05
2022-09-28T12:20:02.250Z,2.83
2022-09-28T12:22:39.652Z,2.42
2022-09-28T12:25:11.675Z,1.98
2022-09-28T12:28:07.134Z,2.40
2022-09-28T12:30:37.455Z,2.15
2022-09-28T12:33:12.431Z,3.53
2022-09-28T12:36:06.005Z,2.97
2022-09-28T12:39:08.750Z,3.35
2022-09-28T12:41:50.825Z,3.20
2022-09-28T12:44:42.113Z,3.05
2022-09-28T12:47:27.580Z,4.15
2022-09-28T12:54:18.320Z,2.72
2022-09-28T12:57:12.269Z,5.07
2022-09-28T12:59:42.701Z,2.42
2022-09-28T13:02:22.954Z,3.40
2022-09-28T13:04:50.692Z,3.60
2022-09-28T13:07:26.405Z,2.90
2022-09-28T13:10:12.138Z,3.22
2022-09-28T13:13:19.362Z,2.15
2022-09-28T13:15:59.148Z,2.60
2022-09-28T13:18:42.787Z,3.72
2022-09-28T13:21:15.398Z,3.70
2022-09-28T13:23:44.071Z,3.75
2022-09-28T13:26:28.055Z,2.92
2022-09-28T13:29:00.442Z,4.25
2022-09-28T13:31:32.452Z,3.03
2022-09-28T13:34:02.970Z,5.80
2022-09-28T13:36:30.077Z,5.82
2022-09-28T13:38:59.423Z,2.92
2022-09-28T13:41:37.614Z,4.07
2022-09-28T13:44:13.335Z,4.53
2022-09-28T13:47:06.174Z,3.83
2022-09-28T13:49:45.710Z,3.78
2022-09-28T13:52:25.716Z,4.70
2022-09-28T13:55:11.606Z,3.92
2022-09-28T13:57:48.936Z,3.80
2022-09-28T14:00:27.832Z,2.95
2022-09-28T14:03:22.192Z,4.43
2022-09-28T14:06:21.777Z,4.75
2022-09-28T14:09:13.439Z,4.57
2022-09-28T14:11:53.300Z,3.90
2022-09-28T14:14:29.918Z,3.75
2022-09-28T14:17:23.486Z,7.57
2022-09-28T14:19:53.428Z,4.55
2022-09-28T14:22:27.364Z,3.05
2022-09-28T14:24:54.746Z,4.43
2022-09-28T14:27:41.738Z,5.88
2022-09-28T14:30:11.448Z,4.30
2022-09-28T14:32:49.192Z,4.35
2022-09-28T14:35:40.086Z,3.90
2022-09-28T14:39:16.022Z,3.05
2022-09-28T14:41:44.010Z,2.72
2022-09-28T14:44:12.359Z,3.08
2022-09-28T14:46:44.706Z,3.35
2022-09-28T14:49:19.456Z,4.43
2022-09-28T14:51:58.379Z,3.42
2022-09-28T14:54:27.027Z,6.57
2022-09-28T14:56:53.593Z,3.60
2022-09-28T14:59:30.354Z,3.53
2022-09-28T15:02:03.491Z,3.92
2022-09-28T15:04:31.236Z,5.35
2022-09-28T15:06:58.084Z,5.47
2022-09-28T15:09:36.676Z,3.95
2022-09-28T15:12:15.098Z,4.53
2022-09-28T15:15:02.257Z,4.32
2022-09-28T15:17:34.654Z,4.85
2022-09-28T15:20:29.961Z,4.40
2022-09-28T15:22:58.889Z,5.90
2022-09-28T15:25:28.649Z,7.00
2022-09-28T15:28:17.261Z,5.78
2022-09-28T15:30:43.922Z,3.83
2022-09-28T15:33:43.298Z,3.92
2022-09-28T15:36:16.692Z,4.68
2022-09-28T15:38:43.452Z,4.10
2022-09-28T15:41:11.121Z,5.07
2022-09-28T15:43:38.234Z,4.38
2022-09-28T15:46:19.092Z,3.40
2022-09-28T15:48:53.209Z,3.67
2022-09-28T15:51:22.296Z,4.50
2022-09-28T15:54:00.046Z,3.75
2022-09-28T15:56:27.545Z,6.22
2022-09-28T15:59:15.418Z,3.75
2022-09-28T16:01:44.624Z,4.00
2022-09-28T16:05:00.932Z,5.10
2022-09-28T16:07:33.505Z,5.65
2022-09-28T16:10:04.872Z,5.68
2022-09-28T16:12:37.246Z,4.82
2022-09-28T16:15:34.301Z,3.40
2022-09-28T16:18:18.044Z,2.95
2022-09-28T16:20:49.531Z,3.90
2022-09-28T16:23:20.952Z,4.10
2022-09-28T16:26:11.219Z,3.75
2022-09-28T16:28:40.789Z,4.07
2022-09-28T16:31:13.368Z,5.28
2022-09-28T16:33:41.151Z,5.47
2022-09-28T16:36:15.398Z,2.72
2022-09-28T16:38:45.432Z,3.13
2022-09-28T16:41:13.393Z,3.65
2022-09-28T16:43:41.441Z,3.55
2022-09-28T16:46:12.827Z,7.28
2022-09-28T16:48:48.464Z,3.90
2022-09-28T16:51:20.029Z,2.67
2022-09-28T16:54:06.341Z,4.07
2022-09-28T16:59:01.128Z,3.97
2022-09-28T17:01:32.286Z,2.42
2022-09-28T17:04:01.663Z,4.03
2022-09-28T17:06:28.301Z,3.13
2022-09-28T17:08:56.665Z,3.92
2022-09-28T17:11:24.963Z,4.72
2022-09-28T17:13:52.255Z,6.40
2022-09-28T17:16:32.638Z,5.55
2022-09-28T17:19:05.503Z,3.88
2022-09-28T17:21:32.176Z,6.97
2022-09-28T17:23:59.795Z,6.00
2022-09-28T17:26:30.660Z,5.38
2022-09-28T17:29:01.652Z,4.45
2022-09-28T17:31:29.484Z,4.75
2022-09-28T17:33:56.149Z,3.65
2022-09-28T17:36:22.922Z,4.25
2022-09-28T17:38:51.722Z,4.75
2022-09-28T17:41:21.061Z,5.53
2022-09-28T17:43:49.283Z,3.95
2022-09-28T17:46:27.712Z,5.28
2022-09-28T17:48:59.420Z,3.92
2022-09-28T17:51:31.176Z,6.97
2022-09-28T17:53:58.633Z,6.00
2022-09-28T17:56:31.685Z,3.97
2022-09-28T17:59:01.602Z,4.43
2022-09-28T18:01:34.902Z,4.40
2022-09-28T18:04:05.022Z,5.55
2022-09-28T18:07:30.951Z,3.78
2022-09-28T18:09:58.268Z,8.30
2022-09-28T18:12:25.035Z,2.70
2022-09-28T18:14:53.362Z,4.53
2022-09-28T18:17:19.967Z,4.20
2022-09-28T18:19:46.603Z,4.05
2022-09-28T18:22:13.250Z,5.57
2022-09-28T18:24:39.974Z,4.90
2022-09-28T18:27:06.990Z,3.60
2022-09-28T18:29:34.968Z,3.88
2022-09-28T18:32:02.455Z,5.15
2022-09-28T18:34:29.111Z,5.22
2022-09-28T18:36:55.823Z,5.35
2022-09-28T18:39:23.803Z,4.22
2022-09-28T18:41:51.543Z,5.18
2022-09-28T18:44:18.954Z,4.35
2022-09-28T18:46:45.604Z,4.68
2022-09-28T18:49:12.318Z,3.90
2022-09-28T18:51:43.515Z,4.80
2022-09-28T18:54:10.144Z,5.00
2022-09-28T18:56:38.001Z,6.47
2022-09-28T18:59:11.712Z,5.45
2022-09-28T19:01:41.481Z,3.95
2022-09-28T19:04:12.141Z,6.25
2022-09-28T19:06:41.235Z,3.70
2022-09-28T19:09:08.833Z,6.97
2022-09-28T19:11:36.285Z,3.80
2022-09-28T19:14:15.004Z,4.53
2022-09-28T19:16:43.958Z,5.45
2022-09-28T19:19:13.052Z,6.10
2022-09-28T19:21:40.341Z,5.60
2022-09-28T19:24:07.009Z,3.17
2022-09-28T19:26:33.954Z,4.47
2022-09-28T19:29:02.403Z,4.53
2022-09-28T19:31:29.846Z,3.22
2022-09-28T19:33:57.514Z,5.00
2022-09-28T19:36:28.526Z,3.40
2022-09-28T19:38:57.489Z,4.22
2022-09-28T19:41:43.498Z,3.47
2022-09-28T19:44:26.949Z,2.83
2022-09-28T19:47:09.862Z,3.38
2022-09-28T19:49:53.291Z,4.05
2022-09-28T19:52:19.969Z,5.03
2022-09-28T19:54:57.613Z,4.75
2022-09-28T19:57:28.834Z,4.40
2022-09-28T20:00:01.682Z,7.05
2022-09-28T20:02:34.355Z,3.60
2022-09-28T20:05:02.937Z,5.00
2022-09-28T20:07:32.985Z,5.00
2022-09-28T20:09:59.880Z,3.88
2022-09-28T20:12:27.592Z,3.42
2022-09-28T20:14:54.421Z,4.00
2022-09-28T20:17:21.729Z,4.55
2022-09-28T20:19:51.074Z,5.40
2022-09-28T20:22:18.556Z,4.40
2022-09-28T20:24:45.309Z,3.03
2022-09-28T20:27:12.657Z,3.03
2022-09-28T20:29:39.281Z,5.35
2022-09-28T20:32:07.517Z,2.88
2022-09-28T20:34:34.278Z,4.20
2022-09-28T20:37:01.826Z,3.55
2022-09-28T20:39:30.292Z,4.82
2022-09-28T20:41:57.351Z,5.05
2022-09-28T20:44:24.118Z,4.60
2022-09-28T20:46:51.675Z,4.70
2022-09-28T20:49:19.473Z,3.53
2022-09-28T20:51:46.242Z,5.90
2022-09-28T20:54:12.912Z,5.03
2022-09-28T20:56:40.151Z,2.85
2022-09-28T20:59:08.484Z,1.75
2022-09-28T21:02:27.349Z,4.75
2022-09-28T21:04:55.079Z,3.83
2022-09-28T21:07:21.647Z,3.03
2022-09-28T21:09:51.131Z,2.92
2022-09-28T21:12:19.142Z,4.30
2022-09-28T21:14:45.827Z,3.65
2022-09-28T21:17:12.707Z,5.25
2022-09-28T21:19:39.370Z,3.75
2022-09-28T21:22:07.253Z,4.45
2022-09-28T21:25:31.799Z,3.67
2022-09-28T21:27:59.305Z,2.40
2022-09-28T21:30:26.728Z,4.82
2022-09-28T21:32:53.482Z,2.25
2022-09-28T21:35:20.052Z,5.53
2022-09-28T21:37:46.646Z,2.88
2022-09-28T21:40:13.347Z,2.70
2022-09-28T21:42:40.742Z,3.40
2022-09-28T21:45:08.807Z,3.92
2022-09-28T21:48:03.651Z,3.92
2022-09-28T21:50:30.930Z,4.18
2022-09-28T21:52:57.488Z,3.00
2022-09-28T21:55:24.383Z,3.72
2022-09-28T21:57:51.674Z,6.07
2022-09-28T22:00:23.127Z,4.65
2022-09-28T22:02:52.748Z,3.13
2022-09-28T22:05:20.357Z,2.97
2022-09-28T22:07:48.610Z,4.78
2022-09-28T22:10:19.279Z,2.15
2022-09-28T22:12:46.101Z,5.70
2022-09-28T22:15:12.880Z,4.13
2022-09-28T22:17:40.224Z,5.63
2022-09-28T22:20:07.284Z,8.43
2022-09-28T22:22:34.398Z,8.50
2022-09-28T22:25:01.850Z,4.90
2022-09-28T22:27:31.590Z,3.97
2022-09-28T22:29:59.118Z,3.40
2022-09-28T22:33:29.419Z,2.75
2022-09-28T22:35:56.277Z,4.55
2022-09-28T22:38:24.275Z,3.17
2022-09-28T22:40:54.164Z,3.80
2022-09-28T22:43:23.307Z,3.53
2022-09-28T22:46:00.071Z,3.33
2022-09-28T22:48:26.927Z,3.50
2022-09-28T22:50:53.585Z,2.88
2022-09-28T22:53:20.323Z,2.58
2022-09-28T22:55:48.735Z,2.10
2022-09-28T22:58:15.470Z,2.80
2022-09-28T23:00:43.246Z,3.65
2022-09-28T23:03:21.547Z,4.90
2022-09-28T23:05:54.722Z,3.65
2022-09-28T23:08:22.531Z,3.20
2022-09-28T23:10:50.356Z,3.05
2022-09-28T23:13:18.464Z,3.05
2022-09-28T23:16:25.624Z,3.88
2022-09-28T23:18:54.579Z,4.65
2022-09-28T23:21:23.721Z,4.18
2022-09-28T23:23:56.046Z,4.70
2022-09-28T23:26:25.400Z,2.75
2022-09-28T23:28:52.665Z,2.92
2022-09-28T23:31:24.689Z,3.55
2022-09-28T23:33:51.644Z,2.88
2022-09-28T23:36:18.589Z,2.45
2022-09-28T23:38:45.441Z,3.17
2022-09-28T23:41:12.135Z,3.45
2022-09-28T23:43:39.060Z,4.13
2022-09-28T23:46:06.096Z,3.30
2022-09-28T23:48:34.195Z,2.30
2022-09-28T23:51:01.658Z,3.13
2022-09-28T23:53:29.668Z,2.72
2022-09-28T23:55:56.321Z,2.67
2022-09-28T23:58:24.262Z,2.95
